createdAt,value
2023-03-31T00:00:26.675Z,17.4
2023-03-31T00:10:27.405Z,17.3
2023-03-31T00:20:28.035Z,17.2
2023-03-31T00:30:28.697Z,17.3
2023-03-31T00:40:29.434Z,17.4
2023-03-31T00:50:30.460Z,17.2
2023-03-31T01:00:30.808Z,17.1
2023-03-31T01:10:31.413Z,17.2
2023-03-31T01:20:32.334Z,17.3
2023-03-31T01:30:32.892Z,17.1
2023-03-31T01:40:33.727Z,17.2
2023-03-31T01:50:34.280Z,17.1
2023-03-31T02:00:35.077Z,17.1
2023-03-31T02:10:36.541Z,17.2
2023-03-31T02:20:36.439Z,17.2
2023-03-31T02:30:37.297Z,17.1
2023-03-31T02:40:38.246Z,17.1
2023-03-31T02:50:38.894Z,17.2
2023-03-31T03:10:08.402Z,17.2
2023-03-31T03:20:08.944Z,17.3
2023-03-31T03:30:09.449Z,17.3
2023-03-31T03:40:09.234Z,17.3
2023-03-31T03:50:09.440Z,17.4
2023-03-31T04:00:09.885Z,17.3
2023-03-31T04:10:11.388Z,17.3
2023-03-31T04:20:13.137Z,17.3
2023-03-31T04:30:14.566Z,17.3
2023-03-31T04:40:16.290Z,17.3
2023-03-31T04:50:17.911Z,17.3
2023-03-31T05:00:18.960Z,17.1
2023-03-31T05:10:19.933Z,17.2
2023-03-31T05:20:20.519Z,17.2
2023-03-31T05:30:21.948Z,17.2
2023-03-31T05:40:27.087Z,17.2
2023-03-31T05:50:36.021Z,17.6
2023-03-31T06:00:51.082Z,17.6
2023-03-31T06:10:56.875Z,17.4
2023-03-31T06:20:57.161Z,17.3
2023-03-31T06:31:01.522Z,17.6
2023-03-31T06:41:11.803Z,17.1
2023-03-31T06:51:22.348Z,17.3
2023-03-31T07:01:36.934Z,17.6
2023-03-31T07:11:56.489Z,17.6
2023-03-31T07:22:11.289Z,17.6
2023-03-31T07:32:30.538Z,17.8
2023-03-31T07:42:50.376Z,18.2
2023-03-31T07:53:05.576Z,18.4
2023-03-31T08:03:20.803Z,18.8
2023-03-31T08:13:35.675Z,19.5
2023-03-31T08:23:47.806Z,19.5
2023-03-31T08:33:59.661Z,19.4
2023-03-31T08:44:11.615Z,19.4
2023-03-31T08:54:23.731Z,19.6
2023-03-31T09:10:21.178Z,19.5
2023-03-31T09:20:34.829Z,20.3
2023-03-31T09:30:53.002Z,19.8
2023-03-31T09:41:11.172Z,19.2
2023-03-31T09:51:24.664Z,20.5
2023-03-31T10:01:36.174Z,20
2023-03-31T10:11:47.092Z,20.3
2023-03-31T10:21:58.903Z,20.2
2023-03-31T10:32:08.122Z,20.3
2023-03-31T10:42:18.338Z,20.6
2023-03-31T10:52:26.931Z,19.8
2023-03-31T11:02:32.174Z,19.9
2023-03-31T11:12:37.098Z,19.9
2023-03-31T11:22:41.759Z,20
2023-03-31T11:32:47.402Z,20.4
2023-03-31T11:42:55.133Z,20.4
2023-03-31T11:53:01.190Z,20
2023-03-31T12:03:08.025Z,19.7
2023-03-31T12:13:14.783Z,19.9
2023-03-31T12:23:20.458Z,19.8
2023-03-31T12:33:25.822Z,19.9
2023-03-31T12:43:32.420Z,19.7
2023-03-31T12:53:37.343Z,19.9
2023-03-31T13:03:42.258Z,19.8
2023-03-31T13:13:58.230Z,19.7
2023-03-31T13:23:51.789Z,19.7
2023-03-31T13:33:52.302Z,19.6
2023-03-31T13:43:54.055Z,20
2023-03-31T13:53:55.621Z,19.8
2023-03-31T14:03:56.796Z,20.2
2023-03-31T14:14:00.646Z,19.8
2023-03-31T14:24:01.644Z,19.9
2023-03-31T14:34:01.996Z,19.8
2023-03-31T14:44:01.482Z,19.9
2023-03-31T14:54:02.122Z,19.8
2023-03-31T15:10:09.661Z,19.9
2023-03-31T15:20:10.878Z,19.2
2023-03-31T15:30:10.031Z,19.3
2023-03-31T15:45:25.564Z,19.3
2023-03-31T15:55:25.110Z,19.3
2023-03-31T16:05:27.054Z,19.1
2023-03-31T16:15:25.215Z,19.3
2023-03-31T16:25:23.012Z,19.2
2023-03-31T16:35:23.054Z,19.1
2023-03-31T16:45:23.211Z,19.1
2023-03-31T16:55:23.557Z,19.4
2023-03-31T17:05:24.421Z,19.3
2023-03-31T17:15:24.698Z,19.1
2023-03-31T17:25:25.242Z,19.2
2023-03-31T17:35:25.665Z,18.8
2023-03-31T17:45:25.557Z,19.3
2023-03-31T17:55:25.824Z,18.6
2023-03-31T18:05:25.644Z,18.6
2023-03-31T18:15:25.707Z,18.6
2023-03-31T18:25:26.330Z,18.5
2023-03-31T18:35:25.943Z,18.5
2023-03-31T18:45:26.472Z,18.4
2023-03-31T18:55:26.042Z,18.3
2023-03-31T19:05:25.966Z,18.3
2023-03-31T19:15:26.135Z,18.4
2023-03-31T19:25:25.961Z,18.4
2023-03-31T19:35:25.984Z,18.4
2023-03-31T19:45:26.075Z,18.4
2023-03-31T19:55:26.265Z,18.3
2023-03-31T20:05:27.390Z,18.4
2023-03-31T20:15:27.627Z,18.3
2023-03-31T20:25:27.940Z,18.3
2023-03-31T20:35:27.664Z,18.2
2023-03-31T20:45:27.725Z,18.1
2023-03-31T20:55:28.407Z,18.5
2023-03-31T21:10:08.720Z,18.4
2023-03-31T21:20:09.585Z,18.4
2023-03-31T21:30:10.320Z,18.3
2023-03-31T21:40:10.460Z,18.4
2023-03-31T21:50:10.864Z,18.2
2023-03-31T22:00:11.483Z,18.3
2023-03-31T22:10:13.067Z,18.3
2023-03-31T22:20:14.947Z,18.3
2023-03-31T22:30:16.750Z,18.2
2023-03-31T22:40:18.422Z,18.3
2023-03-31T22:50:20.291Z,18.2
2023-03-31T23:00:21.344Z,18.2
2023-03-31T23:10:22.051Z,18.3
2023-03-31T23:20:22.560Z,18.2
2023-03-31T23:30:23.148Z,18.2
2023-03-31T23:40:23.528Z,18.1
2023-03-31T23:50:23.757Z,18.1
